sensor_id;sensor_type;location;lat;lon;timestamp;P1;durP1;ratioP1;P2;durP2;ratioP2
48963;SDS011;34776;48.180;16.420;2023-05-10T00:02:03;5.00;;;2.80;;
48963;SDS011;34776;48.180;16.420;2023-05-10T00:04:28;4.55;;;2.80;;
48963;SDS011;34776;48.180;16.420;2023-05-10T00:06:54;7.32;;;3.25;;
48963;SDS011;34776;48.180;16.420;2023-05-10T00:09:19;5.88;;;3.15;;
48963;SDS011;34776;48.180;16.420;2023-05-10T00:11:45;5.47;;;3.20;;
48963;SDS011;34776;48.180;16.420;2023-05-10T00:14:11;3.65;;;3.33;;
48963;SDS011;34776;48.180;16.420;2023-05-10T00:19:12;3.92;;;3.25;;
48963;SDS011;34776;48.180;16.420;2023-05-10T00:21:37;3.17;;;2.80;;
48963;SDS011;34776;48.180;16.420;2023-05-10T00:24:03;3.78;;;3.35;;
48963;SDS011;34776;48.180;16.420;2023-05-10T00:26:29;4.32;;;2.75;;
48963;SDS011;34776;48.180;16.420;2023-05-10T00:28:54;4.53;;;2.97;;
48963;SDS011;34776;48.180;16.420;2023-05-10T00:31:19;4.60;;;2.90;;
48963;SDS011;34776;48.180;16.420;2023-05-10T00:33:45;2.40;;;2.17;;
48963;SDS011;34776;48.180;16.420;2023-05-10T00:36:10;5.13;;;3.10;;
48963;SDS011;34776;48.180;16.420;2023-05-10T00:38:35;4.00;;;2.92;;
48963;SDS011;34776;48.180;16.420;2023-05-10T00:41:01;7.25;;;3.22;;
48963;SDS011;34776;48.180;16.420;2023-05-10T00:43:26;4.13;;;3.17;;
48963;SDS011;34776;48.180;16.420;2023-05-10T00:45:52;4.20;;;3.20;;
48963;SDS011;34776;48.180;16.420;2023-05-10T00:48:18;3.78;;;3.03;;
48963;SDS011;34776;48.180;16.420;2023-05-10T00:50:43;4.75;;;3.08;;
48963;SDS011;34776;48.180;16.420;2023-05-10T00:53:09;4.07;;;3.17;;
48963;SDS011;34776;48.180;16.420;2023-05-10T00:55:35;4.50;;;2.95;;
48963;SDS011;34776;48.180;16.420;2023-05-10T00:58:01;4.85;;;3.05;;
48963;SDS011;34776;48.180;16.420;2023-05-10T01:08:12;5.15;;;2.80;;
48963;SDS011;34776;48.180;16.420;2023-05-10T01:13:07;5.38;;;3.00;;
48963;SDS011;34776;48.180;16.420;2023-05-10T01:18:08;4.57;;;3.13;;
48963;SDS011;34776;48.180;16.420;2023-05-10T01:20:35;4.88;;;3.42;;
48963;SDS011;34776;48.180;16.420;2023-05-10T01:23:31;3.63;;;2.90;;
48963;SDS011;34776;48.180;16.420;2023-05-10T01:29:27;3.75;;;3.13;;
48963;SDS011;34776;48.180;16.420;2023-05-10T01:34:39;3.88;;;3.05;;
48963;SDS011;34776;48.180;16.420;2023-05-10T01:37:15;3.47;;;3.13;;
48963;SDS011;34776;48.180;16.420;2023-05-10T01:40:00;4.13;;;3.17;;
48963;SDS011;34776;48.180;16.420;2023-05-10T01:42:36;4.63;;;3.60;;
48963;SDS011;34776;48.180;16.420;2023-05-10T01:45:26;3.15;;;2.85;;
48963;SDS011;34776;48.180;16.420;2023-05-10T01:48:06;7.57;;;3.40;;
48963;SDS011;34776;48.180;16.420;2023-05-10T01:53:06;3.90;;;3.10;;
48963;SDS011;34776;48.180;16.420;2023-05-10T01:55:35;4.65;;;3.30;;
48963;SDS011;34776;48.180;16.420;2023-05-10T01:58:17;6.95;;;3.30;;
48963;SDS011;34776;48.180;16.420;2023-05-10T02:00:46;6.78;;;3.58;;
48963;SDS011;34776;48.180;16.420;2023-05-10T02:03:14;5.15;;;3.42;;
48963;SDS011;34776;48.180;16.420;2023-05-10T02:05:41;6.93;;;3.28;;
48963;SDS011;34776;48.180;16.420;2023-05-10T02:08:10;3.85;;;3.20;;
48963;SDS011;34776;48.180;16.420;2023-05-10T02:13:12;5.80;;;3.30;;
48963;SDS011;34776;48.180;16.420;2023-05-10T02:18:14;5.07;;;3.50;;
48963;SDS011;34776;48.180;16.420;2023-05-10T02:20:41;4.05;;;3.33;;
48963;SDS011;34776;48.180;16.420;2023-05-10T02:31:43;3.97;;;3.50;;
48963;SDS011;34776;48.180;16.420;2023-05-10T02:34:10;6.25;;;3.83;;
48963;SDS011;34776;48.180;16.420;2023-05-10T02:36:37;6.32;;;3.97;;
48963;SDS011;34776;48.180;16.420;2023-05-10T02:39:04;9.35;;;3.55;;
48963;SDS011;34776;48.180;16.420;2023-05-10T02:41:34;6.90;;;3.72;;
48963;SDS011;34776;48.180;16.420;2023-05-10T02:44:01;6.97;;;3.75;;
48963;SDS011;34776;48.180;16.420;2023-05-10T02:46:27;5.55;;;3.60;;
48963;SDS011;34776;48.180;16.420;2023-05-10T02:48:53;4.00;;;3.60;;
48963;SDS011;34776;48.180;16.420;2023-05-10T02:51:19;5.78;;;4.00;;
48963;SDS011;34776;48.180;16.420;2023-05-10T02:53:49;5.35;;;3.95;;
48963;SDS011;34776;48.180;16.420;2023-05-10T02:56:25;5.38;;;3.60;;
48963;SDS011;34776;48.180;16.420;2023-05-10T02:59:00;5.45;;;3.78;;
48963;SDS011;34776;48.180;16.420;2023-05-10T03:01:26;9.40;;;4.47;;
48963;SDS011;34776;48.180;16.420;2023-05-10T03:03:51;4.22;;;3.53;;
48963;SDS011;34776;48.180;16.420;2023-05-10T03:06:17;5.95;;;3.72;;
48963;SDS011;34776;48.180;16.420;2023-05-10T03:21:29;5.32;;;4.63;;
48963;SDS011;34776;48.180;16.420;2023-05-10T03:24:01;6.60;;;3.97;;
48963;SDS011;34776;48.180;16.420;2023-05-10T03:26:31;4.15;;;3.72;;
48963;SDS011;34776;48.180;16.420;2023-05-10T03:28:57;6.63;;;4.20;;
48963;SDS011;34776;48.180;16.420;2023-05-10T03:31:24;7.75;;;3.97;;
48963;SDS011;34776;48.180;16.420;2023-05-10T03:33:50;5.07;;;3.50;;
48963;SDS011;34776;48.180;16.420;2023-05-10T03:36:16;6.22;;;3.90;;
48963;SDS011;34776;48.180;16.420;2023-05-10T03:38:42;6.45;;;4.43;;
48963;SDS011;34776;48.180;16.420;2023-05-10T03:41:07;4.60;;;4.00;;
48963;SDS011;34776;48.180;16.420;2023-05-10T03:43:33;6.32;;;4.55;;
48963;SDS011;34776;48.180;16.420;2023-05-10T03:45:58;6.57;;;4.15;;
48963;SDS011;34776;48.180;16.420;2023-05-10T03:48:24;7.50;;;4.28;;
48963;SDS011;34776;48.180;16.420;2023-05-10T03:50:49;7.50;;;4.10;;
48963;SDS011;34776;48.180;16.420;2023-05-10T03:53:15;4.22;;;3.70;;
48963;SDS011;34776;48.180;16.420;2023-05-10T03:55:40;4.43;;;3.80;;
48963;SDS011;34776;48.180;16.420;2023-05-10T03:58:10;6.20;;;3.92;;
48963;SDS011;34776;48.180;16.420;2023-05-10T04:00:36;4.63;;;3.40;;
48963;SDS011;34776;48.180;16.420;2023-05-10T04:05:37;10.30;;;3.92;;
48963;SDS011;34776;48.180;16.420;2023-05-10T04:08:02;4.32;;;3.80;;
48963;SDS011;34776;48.180;16.420;2023-05-10T04:10:28;6.57;;;4.20;;
48963;SDS011;34776;48.180;16.420;2023-05-10T04:12:54;7.00;;;4.72;;
48963;SDS011;34776;48.180;16.420;2023-05-10T04:15:19;7.53;;;4.68;;
48963;SDS011;34776;48.180;16.420;2023-05-10T04:17:45;6.90;;;4.28;;
48963;SDS011;34776;48.180;16.420;2023-05-10T04:20:11;4.88;;;4.18;;
48963;SDS011;34776;48.180;16.420;2023-05-10T04:22:37;5.72;;;4.13;;
48963;SDS011;34776;48.180;16.420;2023-05-10T04:25:02;4.20;;;3.50;;
48963;SDS011;34776;48.180;16.420;2023-05-10T04:27:28;6.07;;;4.47;;
48963;SDS011;34776;48.180;16.420;2023-05-10T04:29:54;5.40;;;4.05;;
48963;SDS011;34776;48.180;16.420;2023-05-10T04:32:19;4.75;;;4.10;;
48963;SDS011;34776;48.180;16.420;2023-05-10T04:34:45;5.38;;;4.55;;
48963;SDS011;34776;48.180;16.420;2023-05-10T04:37:10;7.22;;;4.75;;
48963;SDS011;34776;48.180;16.420;2023-05-10T04:39:36;4.97;;;4.18;;
48963;SDS011;34776;48.180;16.420;2023-05-10T04:42:02;4.53;;;3.90;;
48963;SDS011;34776;48.180;16.420;2023-05-10T04:44:28;8.07;;;4.43;;
48963;SDS011;34776;48.180;16.420;2023-05-10T04:46:54;10.38;;;4.93;;
48963;SDS011;34776;48.180;16.420;2023-05-10T04:49:20;8.65;;;4.97;;
48963;SDS011;34776;48.180;16.420;2023-05-10T04:51:45;7.80;;;5.30;;
48963;SDS011;34776;48.180;16.420;2023-05-10T04:54:11;7.47;;;4.82;;
48963;SDS011;34776;48.180;16.420;2023-05-10T04:56:36;10.10;;;4.60;;
48963;SDS011;34776;48.180;16.420;2023-05-10T05:04:12;8.25;;;4.90;;
48963;SDS011;34776;48.180;16.420;2023-05-10T05:06:37;10.98;;;4.63;;
48963;SDS011;34776;48.180;16.420;2023-05-10T05:09:02;10.20;;;4.97;;
48963;SDS011;34776;48.180;16.420;2023-05-10T05:11:28;7.78;;;4.95;;
48963;SDS011;34776;48.180;16.420;2023-05-10T05:13:53;7.22;;;4.72;;
48963;SDS011;34776;48.180;16.420;2023-05-10T05:16:19;4.97;;;4.25;;
48963;SDS011;34776;48.180;16.420;2023-05-10T05:18:44;7.10;;;4.60;;
48963;SDS011;34776;48.180;16.420;2023-05-10T05:21:16;7.18;;;5.03;;
48963;SDS011;34776;48.180;16.420;2023-05-10T05:23:42;6.00;;;4.75;;
48963;SDS011;34776;48.180;16.420;2023-05-10T05:26:08;6.85;;;4.40;;
48963;SDS011;34776;48.180;16.420;2023-05-10T05:28:33;4.35;;;3.95;;
48963;SDS011;34776;48.180;16.420;2023-05-10T05:31:02;8.73;;;4.75;;
48963;SDS011;34776;48.180;16.420;2023-05-10T05:33:28;5.47;;;4.35;;
48963;SDS011;34776;48.180;16.420;2023-05-10T05:35:53;5.55;;;4.53;;
48963;SDS011;34776;48.180;16.420;2023-05-10T05:38:18;6.88;;;5.10;;
48963;SDS011;34776;48.180;16.420;2023-05-10T05:40:44;6.25;;;4.60;;
48963;SDS011;34776;48.180;16.420;2023-05-10T05:43:10;6.95;;;5.43;;
48963;SDS011;34776;48.180;16.420;2023-05-10T05:45:36;8.52;;;5.22;;
48963;SDS011;34776;48.180;16.420;2023-05-10T05:48:01;5.20;;;4.65;;
48963;SDS011;34776;48.180;16.420;2023-05-10T05:53:02;7.93;;;4.95;;
48963;SDS011;34776;48.180;16.420;2023-05-10T05:55:27;8.70;;;5.40;;
48963;SDS011;34776;48.180;16.420;2023-05-10T05:57:54;8.25;;;4.85;;
48963;SDS011;34776;48.180;16.420;2023-05-10T06:00:19;5.25;;;4.72;;
48963;SDS011;34776;48.180;16.420;2023-05-10T06:02:46;7.35;;;5.38;;
48963;SDS011;34776;48.180;16.420;2023-05-10T06:05:11;9.13;;;5.13;;
48963;SDS011;34776;48.180;16.420;2023-05-10T06:07:37;5.65;;;4.60;;
48963;SDS011;34776;48.180;16.420;2023-05-10T06:10:02;7.53;;;4.50;;
48963;SDS011;34776;48.180;16.420;2023-05-10T06:12:28;6.95;;;5.57;;
48963;SDS011;34776;48.180;16.420;2023-05-10T06:14:53;5.35;;;4.85;;
48963;SDS011;34776;48.180;16.420;2023-05-10T06:17:18;6.90;;;4.80;;
48963;SDS011;34776;48.180;16.420;2023-05-10T06:19:44;8.07;;;5.07;;
48963;SDS011;34776;48.180;16.420;2023-05-10T06:22:09;6.60;;;4.90;;
48963;SDS011;34776;48.180;16.420;2023-05-10T06:24:35;7.80;;;4.82;;
48963;SDS011;34776;48.180;16.420;2023-05-10T06:27:00;9.05;;;4.55;;
48963;SDS011;34776;48.180;16.420;2023-05-10T06:29:26;5.97;;;3.85;;
48963;SDS011;34776;48.180;16.420;2023-05-10T06:31:51;7.22;;;4.80;;
48963;SDS011;34776;48.180;16.420;2023-05-10T06:34:16;5.60;;;4.15;;
48963;SDS011;34776;48.180;16.420;2023-05-10T06:36:42;7.10;;;4.28;;
48963;SDS011;34776;48.180;16.420;2023-05-10T06:39:07;4.65;;;3.90;;
48963;SDS011;34776;48.180;16.420;2023-05-10T06:41:33;5.20;;;3.40;;
48963;SDS011;34776;48.180;16.420;2023-05-10T06:43:58;8.50;;;3.65;;
48963;SDS011;34776;48.180;16.420;2023-05-10T06:46:23;6.25;;;3.38;;
48963;SDS011;34776;48.180;16.420;2023-05-10T06:48:49;4.28;;;3.30;;
48963;SDS011;34776;48.180;16.420;2023-05-10T06:51:14;5.88;;;3.55;;
48963;SDS011;34776;48.180;16.420;2023-05-10T06:53:39;15.43;;;3.72;;
48963;SDS011;34776;48.180;16.420;2023-05-10T06:56:05;5.65;;;2.65;;
48963;SDS011;34776;48.180;16.420;2023-05-10T06:58:30;7.22;;;3.70;;
48963;SDS011;34776;48.180;16.420;2023-05-10T07:01:03;11.68;;;3.15;;
48963;SDS011;34776;48.180;16.420;2023-05-10T07:03:30;5.55;;;2.78;;
48963;SDS011;34776;48.180;16.420;2023-05-10T07:08:31;5.55;;;3.08;;
48963;SDS011;34776;48.180;16.420;2023-05-10T07:11:03;8.25;;;4.03;;
48963;SDS011;34776;48.180;16.420;2023-05-10T07:13:32;6.20;;;3.30;;
48963;SDS011;34776;48.180;16.420;2023-05-10T07:15:58;4.53;;;3.08;;
48963;SDS011;34776;48.180;16.420;2023-05-10T07:18:24;3.50;;;2.75;;
48963;SDS011;34776;48.180;16.420;2023-05-10T07:20:50;4.70;;;3.30;;
48963;SDS011;34776;48.180;16.420;2023-05-10T07:23:16;5.78;;;3.42;;
48963;SDS011;34776;48.180;16.420;2023-05-10T07:25:44;6.07;;;3.10;;
48963;SDS011;34776;48.180;16.420;2023-05-10T07:28:13;4.03;;;3.40;;
48963;SDS011;34776;48.180;16.420;2023-05-10T07:30:39;6.75;;;3.00;;
48963;SDS011;34776;48.180;16.420;2023-05-10T07:33:04;8.45;;;3.70;;
48963;SDS011;34776;48.180;16.420;2023-05-10T07:35:30;6.40;;;3.25;;
48963;SDS011;34776;48.180;16.420;2023-05-10T07:37:55;6.53;;;3.40;;
48963;SDS011;34776;48.180;16.420;2023-05-10T07:40:21;4.47;;;3.20;;
48963;SDS011;34776;48.180;16.420;2023-05-10T07:42:46;5.00;;;3.67;;
48963;SDS011;34776;48.180;16.420;2023-05-10T07:45:11;3.67;;;3.17;;
48963;SDS011;34776;48.180;16.420;2023-05-10T07:47:37;6.90;;;3.17;;
48963;SDS011;34776;48.180;16.420;2023-05-10T07:50:02;4.47;;;3.30;;
48963;SDS011;34776;48.180;16.420;2023-05-10T07:52:28;4.55;;;3.60;;
48963;SDS011;34776;48.180;16.420;2023-05-10T07:54:53;13.37;;;3.40;;
48963;SDS011;34776;48.180;16.420;2023-05-10T07:57:19;4.35;;;3.28;;
48963;SDS011;34776;48.180;16.420;2023-05-10T07:59:44;10.75;;;3.88;;
48963;SDS011;34776;48.180;16.420;2023-05-10T08:02:10;5.40;;;3.60;;
48963;SDS011;34776;48.180;16.420;2023-05-10T08:04:35;7.43;;;3.42;;
48963;SDS011;34776;48.180;16.420;2023-05-10T08:07:01;4.73;;;3.30;;
48963;SDS011;34776;48.180;16.420;2023-05-10T08:09:26;12.18;;;3.40;;
48963;SDS011;34776;48.180;16.420;2023-05-10T08:11:51;7.75;;;3.95;;
48963;SDS011;34776;48.180;16.420;2023-05-10T08:14:17;6.15;;;3.60;;
48963;SDS011;34776;48.180;16.420;2023-05-10T08:16:42;6.97;;;2.70;;
48963;SDS011;34776;48.180;16.420;2023-05-10T08:19:07;7.78;;;3.10;;
48963;SDS011;34776;48.180;16.420;2023-05-10T08:21:33;8.57;;;3.72;;
48963;SDS011;34776;48.180;16.420;2023-05-10T08:23:58;9.13;;;3.00;;
48963;SDS011;34776;48.180;16.420;2023-05-10T08:26:23;7.68;;;2.63;;
48963;SDS011;34776;48.180;16.420;2023-05-10T08:28:49;5.38;;;2.55;;
48963;SDS011;34776;48.180;16.420;2023-05-10T08:31:14;4.30;;;2.70;;
48963;SDS011;34776;48.180;16.420;2023-05-10T08:33:40;3.47;;;2.50;;
48963;SDS011;34776;48.180;16.420;2023-05-10T08:36:06;5.88;;;2.60;;
48963;SDS011;34776;48.180;16.420;2023-05-10T08:38:31;3.13;;;2.60;;
48963;SDS011;34776;48.180;16.420;2023-05-10T08:40:56;4.55;;;2.30;;
48963;SDS011;34776;48.180;16.420;2023-05-10T08:43:24;3.88;;;2.20;;
48963;SDS011;34776;48.180;16.420;2023-05-10T08:45:55;6.43;;;2.60;;
48963;SDS011;34776;48.180;16.420;2023-05-10T08:48:22;5.13;;;2.70;;
48963;SDS011;34776;48.180;16.420;2023-05-10T08:50:49;3.05;;;2.00;;
48963;SDS011;34776;48.180;16.420;2023-05-10T08:53:17;10.15;;;2.22;;
48963;SDS011;34776;48.180;16.420;2023-05-10T08:55:44;4.97;;;2.70;;
48963;SDS011;34776;48.180;16.420;2023-05-10T08:58:11;5.05;;;2.00;;
48963;SDS011;34776;48.180;16.420;2023-05-10T09:00:36;3.83;;;2.20;;
48963;SDS011;34776;48.180;16.420;2023-05-10T09:03:02;4.18;;;2.30;;
48963;SDS011;34776;48.180;16.420;2023-05-10T09:05:29;3.05;;;2.15;;
48963;SDS011;34776;48.180;16.420;2023-05-10T09:07:54;5.15;;;1.90;;
48963;SDS011;34776;48.180;16.420;2023-05-10T09:10:20;2.40;;;1.77;;
48963;SDS011;34776;48.180;16.420;2023-05-10T09:12:46;3.03;;;1.70;;
48963;SDS011;34776;48.180;16.420;2023-05-10T09:15:14;7.63;;;1.88;;
48963;SDS011;34776;48.180;16.420;2023-05-10T09:17:40;6.00;;;1.70;;
48963;SDS011;34776;48.180;16.420;2023-05-10T09:20:07;4.93;;;1.77;;
48963;SDS011;34776;48.180;16.420;2023-05-10T09:22:33;3.95;;;1.80;;
48963;SDS011;34776;48.180;16.420;2023-05-10T09:27:36;2.42;;;1.40;;
48963;SDS011;34776;48.180;16.420;2023-05-10T09:30:02;1.80;;;1.50;;
48963;SDS011;34776;48.180;16.420;2023-05-10T09:32:38;3.00;;;1.58;;
48963;SDS011;34776;48.180;16.420;2023-05-10T09:35:08;1.67;;;1.30;;
48963;SDS011;34776;48.180;16.420;2023-05-10T09:37:35;4.22;;;1.40;;
48963;SDS011;34776;48.180;16.420;2023-05-10T09:40:00;1.55;;;1.13;;
48963;SDS011;34776;48.180;16.420;2023-05-10T09:42:29;4.47;;;1.50;;
48963;SDS011;34776;48.180;16.420;2023-05-10T09:44:59;2.17;;;1.80;;
48963;SDS011;34776;48.180;16.420;2023-05-10T09:47:25;2.70;;;2.22;;
48963;SDS011;34776;48.180;16.420;2023-05-10T09:49:52;1.70;;;1.48;;
48963;SDS011;34776;48.180;16.420;2023-05-10T09:52:20;3.63;;;1.70;;
48963;SDS011;34776;48.180;16.420;2023-05-10T09:54:52;2.70;;;1.17;;
48963;SDS011;34776;48.180;16.420;2023-05-10T09:57:22;5.55;;;1.35;;
48963;SDS011;34776;48.180;16.420;2023-05-10T09:59:48;1.30;;;1.20;;
48963;SDS011;34776;48.180;16.420;2023-05-10T10:02:15;3.13;;;1.60;;
48963;SDS011;34776;48.180;16.420;2023-05-10T10:04:41;4.38;;;1.42;;
48963;SDS011;34776;48.180;16.420;2023-05-10T10:07:06;8.90;;;1.55;;
48963;SDS011;34776;48.180;16.420;2023-05-10T10:09:32;2.80;;;1.45;;
48963;SDS011;34776;48.180;16.420;2023-05-10T10:11:59;2.10;;;1.20;;
48963;SDS011;34776;48.180;16.420;2023-05-10T10:14:27;2.45;;;1.10;;
48963;SDS011;34776;48.180;16.420;2023-05-10T10:16:52;3.58;;;1.55;;
48963;SDS011;34776;48.180;16.420;2023-05-10T10:19:18;3.17;;;1.10;;
48963;SDS011;34776;48.180;16.420;2023-05-10T10:21:45;3.35;;;1.45;;
48963;SDS011;34776;48.180;16.420;2023-05-10T10:24:11;2.55;;;1.70;;
48963;SDS011;34776;48.180;16.420;2023-05-10T10:26:36;6.38;;;1.92;;
48963;SDS011;34776;48.180;16.420;2023-05-10T10:29:20;3.42;;;1.70;;
48963;SDS011;34776;48.180;16.420;2023-05-10T10:34:55;1.58;;;1.30;;
48963;SDS011;34776;48.180;16.420;2023-05-10T10:37:21;4.28;;;1.83;;
48963;SDS011;34776;48.180;16.420;2023-05-10T10:39:48;1.92;;;1.48;;
48963;SDS011;34776;48.180;16.420;2023-05-10T10:42:14;6.10;;;1.60;;
48963;SDS011;34776;48.180;16.420;2023-05-10T10:45:13;2.97;;;1.48;;
48963;SDS011;34776;48.180;16.420;2023-05-10T10:47:38;2.92;;;1.25;;
48963;SDS011;34776;48.180;16.420;2023-05-10T10:50:04;7.13;;;1.75;;
48963;SDS011;34776;48.180;16.420;2023-05-10T10:52:32;3.60;;;1.60;;
48963;SDS011;34776;48.180;16.420;2023-05-10T10:55:17;1.60;;;1.33;;
48963;SDS011;34776;48.180;16.420;2023-05-10T11:05:35;4.10;;;1.60;;
48963;SDS011;34776;48.180;16.420;2023-05-10T11:10:35;4.13;;;1.65;;
48963;SDS011;34776;48.180;16.420;2023-05-10T11:15:30;3.33;;;2.10;;
48963;SDS011;34776;48.180;16.420;2023-05-10T11:17:57;4.20;;;1.90;;
48963;SDS011;34776;48.180;16.420;2023-05-10T11:20:22;4.90;;;1.83;;
48963;SDS011;34776;48.180;16.420;2023-05-10T11:22:50;2.88;;;1.40;;
48963;SDS011;34776;48.180;16.420;2023-05-10T11:25:16;3.58;;;1.38;;
48963;SDS011;34776;48.180;16.420;2023-05-10T11:27:42;1.75;;;1.25;;
48963;SDS011;34776;48.180;16.420;2023-05-10T11:30:09;2.30;;;1.38;;
48963;SDS011;34776;48.180;16.420;2023-05-10T11:32:37;3.38;;;1.50;;
48963;SDS011;34776;48.180;16.420;2023-05-10T11:35:10;7.88;;;1.75;;
48963;SDS011;34776;48.180;16.420;2023-05-10T11:37:36;5.55;;;1.50;;
48963;SDS011;34776;48.180;16.420;2023-05-10T11:40:07;2.55;;;1.38;;
48963;SDS011;34776;48.180;16.420;2023-05-10T11:42:34;1.40;;;1.17;;
48963;SDS011;34776;48.180;16.420;2023-05-10T11:45:02;6.25;;;1.55;;
48963;SDS011;34776;48.180;16.420;2023-05-10T11:47:27;2.05;;;1.40;;
48963;SDS011;34776;48.180;16.420;2023-05-10T11:49:52;2.50;;;1.48;;
48963;SDS011;34776;48.180;16.420;2023-05-10T11:52:18;3.42;;;1.52;;
48963;SDS011;34776;48.180;16.420;2023-05-10T11:54:45;4.72;;;1.60;;
48963;SDS011;34776;48.180;16.420;2023-05-10T11:57:17;2.22;;;1.40;;
48963;SDS011;34776;48.180;16.420;2023-05-10T11:59:43;1.58;;;1.30;;
48963;SDS011;34776;48.180;16.420;2023-05-10T12:02:09;1.67;;;1.50;;
48963;SDS011;34776;48.180;16.420;2023-05-10T12:04:35;3.05;;;1.60;;
48963;SDS011;34776;48.180;16.420;2023-05-10T12:07:00;6.10;;;1.38;;
48963;SDS011;34776;48.180;16.420;2023-05-10T12:09:26;1.35;;;1.25;;
48963;SDS011;34776;48.180;16.420;2023-05-10T12:11:54;1.42;;;1.00;;
48963;SDS011;34776;48.180;16.420;2023-05-10T12:14:21;9.85;;;1.45;;
48963;SDS011;34776;48.180;16.420;2023-05-10T12:16:47;2.03;;;1.30;;
48963;SDS011;34776;48.180;16.420;2023-05-10T12:19:12;1.50;;;1.30;;
48963;SDS011;34776;48.180;16.420;2023-05-10T12:21:45;4.70;;;1.60;;
48963;SDS011;34776;48.180;16.420;2023-05-10T12:24:10;3.80;;;1.27;;
48963;SDS011;34776;48.180;16.420;2023-05-10T12:26:36;6.07;;;1.50;;
48963;SDS011;34776;48.180;16.420;2023-05-10T12:29:17;2.40;;;1.48;;
48963;SDS011;34776;48.180;16.420;2023-05-10T12:31:56;3.45;;;1.73;;
48963;SDS011;34776;48.180;16.420;2023-05-10T12:34:33;3.15;;;1.30;;
48963;SDS011;34776;48.180;16.420;2023-05-10T12:37:00;7.70;;;1.77;;
48963;SDS011;34776;48.180;16.420;2023-05-10T12:39:25;4.82;;;1.52;;
48963;SDS011;34776;48.180;16.420;2023-05-10T12:41:51;2.33;;;1.48;;
48963;SDS011;34776;48.180;16.420;2023-05-10T12:44:17;3.75;;;1.60;;
48963;SDS011;34776;48.180;16.420;2023-05-10T12:46:42;6.95;;;2.00;;
48963;SDS011;34776;48.180;16.420;2023-05-10T12:49:08;3.50;;;1.88;;
48963;SDS011;34776;48.180;16.420;2023-05-10T12:51:33;4.45;;;2.13;;
48963;SDS011;34776;48.180;16.420;2023-05-10T12:53:58;3.28;;;1.70;;
48963;SDS011;34776;48.180;16.420;2023-05-10T12:56:24;3.45;;;1.40;;
48963;SDS011;34776;48.180;16.420;2023-05-10T12:58:49;5.35;;;1.77;;
48963;SDS011;34776;48.180;16.420;2023-05-10T13:01:15;3.75;;;1.85;;
48963;SDS011;34776;48.180;16.420;2023-05-10T13:03:41;3.63;;;1.70;;
48963;SDS011;34776;48.180;16.420;2023-05-10T13:06:08;5.40;;;1.70;;
48963;SDS011;34776;48.180;16.420;2023-05-10T13:08:33;1.88;;;1.50;;
48963;SDS011;34776;48.180;16.420;2023-05-10T13:10:59;3.28;;;1.73;;
48963;SDS011;34776;48.180;16.420;2023-05-10T13:13:25;2.38;;;1.80;;
48963;SDS011;34776;48.180;16.420;2023-05-10T13:15:51;6.40;;;1.83;;
48963;SDS011;34776;48.180;16.420;2023-05-10T13:18:16;4.10;;;2.17;;
48963;SDS011;34776;48.180;16.420;2023-05-10T13:20:42;4.05;;;1.90;;
48963;SDS011;34776;48.180;16.420;2023-05-10T13:23:09;2.78;;;1.70;;
48963;SDS011;34776;48.180;16.420;2023-05-10T13:25:34;3.38;;;2.00;;
48963;SDS011;34776;48.180;16.420;2023-05-10T13:28:00;2.80;;;1.67;;
48963;SDS011;34776;48.180;16.420;2023-05-10T13:30:25;5.75;;;1.85;;
48963;SDS011;34776;48.180;16.420;2023-05-10T13:32:51;5.78;;;1.98;;
48963;SDS011;34776;48.180;16.420;2023-05-10T13:35:16;2.83;;;1.88;;
48963;SDS011;34776;48.180;16.420;2023-05-10T13:37:41;2.05;;;1.80;;
48963;SDS011;34776;48.180;16.420;2023-05-10T13:40:07;4.45;;;1.80;;
48963;SDS011;34776;48.180;16.420;2023-05-10T13:42:33;6.75;;;1.90;;
48963;SDS011;34776;48.180;16.420;2023-05-10T13:44:58;2.17;;;1.58;;
48963;SDS011;34776;48.180;16.420;2023-05-10T13:47:25;3.85;;;1.92;;
48963;SDS011;34776;48.180;16.420;2023-05-10T13:49:50;2.10;;;1.90;;
48963;SDS011;34776;48.180;16.420;2023-05-10T13:52:16;3.05;;;1.60;;
48963;SDS011;34776;48.180;16.420;2023-05-10T13:54:41;4.80;;;1.85;;
48963;SDS011;34776;48.180;16.420;2023-05-10T13:57:06;2.30;;;1.92;;
48963;SDS011;34776;48.180;16.420;2023-05-10T13:59:32;2.13;;;1.63;;
48963;SDS011;34776;48.180;16.420;2023-05-10T14:01:58;6.10;;;1.90;;
48963;SDS011;34776;48.180;16.420;2023-05-10T14:04:23;3.97;;;1.85;;
48963;SDS011;34776;48.180;16.420;2023-05-10T14:06:49;6.30;;;1.63;;
48963;SDS011;34776;48.180;16.420;2023-05-10T14:09:15;3.83;;;1.90;;
48963;SDS011;34776;48.180;16.420;2023-05-10T14:11:41;1.92;;;1.70;;
48963;SDS011;34776;48.180;16.420;2023-05-10T14:14:08;4.10;;;1.65;;
48963;SDS011;34776;48.180;16.420;2023-05-10T14:16:34;3.22;;;1.60;;
48963;SDS011;34776;48.180;16.420;2023-05-10T14:19:00;4.25;;;1.80;;
48963;SDS011;34776;48.180;16.420;2023-05-10T14:21:25;3.53;;;1.60;;
48963;SDS011;34776;48.180;16.420;2023-05-10T14:23:50;3.20;;;1.65;;
48963;SDS011;34776;48.180;16.420;2023-05-10T14:26:16;3.28;;;1.80;;
48963;SDS011;34776;48.180;16.420;2023-05-10T14:28:41;1.90;;;1.63;;
48963;SDS011;34776;48.180;16.420;2023-05-10T14:31:07;5.53;;;1.52;;
48963;SDS011;34776;48.180;16.420;2023-05-10T14:33:32;1.85;;;1.60;;
48963;SDS011;34776;48.180;16.420;2023-05-10T14:35:57;4.72;;;1.60;;
48963;SDS011;34776;48.180;16.420;2023-05-10T14:38:23;3.95;;;1.90;;
48963;SDS011;34776;48.180;16.420;2023-05-10T14:40:48;3.22;;;1.73;;
48963;SDS011;34776;48.180;16.420;2023-05-10T14:43:14;2.20;;;1.65;;
48963;SDS011;34776;48.180;16.420;2023-05-10T14:45:39;2.13;;;1.67;;
48963;SDS011;34776;48.180;16.420;2023-05-10T14:48:05;2.22;;;1.63;;
48963;SDS011;34776;48.180;16.420;2023-05-10T14:50:30;4.15;;;1.42;;
48963;SDS011;34776;48.180;16.420;2023-05-10T14:52:56;2.40;;;1.80;;
48963;SDS011;34776;48.180;16.420;2023-05-10T14:55:22;6.07;;;1.60;;
48963;SDS011;34776;48.180;16.420;2023-05-10T14:57:47;8.13;;;2.28;;
48963;SDS011;34776;48.180;16.420;2023-05-10T15:00:15;5.68;;;1.63;;
48963;SDS011;34776;48.180;16.420;2023-05-10T15:02:41;2.38;;;1.70;;
48963;SDS011;34776;48.180;16.420;2023-05-10T15:05:06;1.50;;;1.30;;
48963;SDS011;34776;48.180;16.420;2023-05-10T15:10:33;15.90;;;2.33;;
48963;SDS011;34776;48.180;16.420;2023-05-10T15:12:59;1.40;;;1.30;;
48963;SDS011;34776;48.180;16.420;2023-05-10T15:15:24;3.17;;;1.60;;
48963;SDS011;34776;48.180;16.420;2023-05-10T15:17:49;1.73;;;1.50;;
48963;SDS011;34776;48.180;16.420;2023-05-10T15:20:15;4.53;;;1.40;;
48963;SDS011;34776;48.180;16.420;2023-05-10T15:22:40;10.27;;;1.73;;
48963;SDS011;34776;48.180;16.420;2023-05-10T15:25:06;3.85;;;1.73;;
48963;SDS011;34776;48.180;16.420;2023-05-10T15:27:31;1.88;;;1.58;;
48963;SDS011;34776;48.180;16.420;2023-05-10T15:29:57;3.10;;;1.60;;
48963;SDS011;34776;48.180;16.420;2023-05-10T15:32:24;5.40;;;1.50;;
48963;SDS011;34776;48.180;16.420;2023-05-10T15:34:49;4.90;;;2.35;;
48963;SDS011;34776;48.180;16.420;2023-05-10T15:37:15;4.03;;;2.22;;
48963;SDS011;34776;48.180;16.420;2023-05-10T15:39:40;4.97;;;2.00;;
48963;SDS011;34776;48.180;16.420;2023-05-10T15:42:05;5.13;;;2.15;;
48963;SDS011;34776;48.180;16.420;2023-05-10T15:44:31;5.75;;;1.80;;
48963;SDS011;34776;48.180;16.420;2023-05-10T15:46:56;6.85;;;1.88;;
48963;SDS011;34776;48.180;16.420;2023-05-10T15:49:21;5.70;;;1.80;;
48963;SDS011;34776;48.180;16.420;2023-05-10T15:51:47;3.78;;;1.85;;
48963;SDS011;34776;48.180;16.420;2023-05-10T15:54:12;3.22;;;1.58;;
48963;SDS011;34776;48.180;16.420;2023-05-10T15:56:37;4.75;;;1.85;;